Weather reports worldwide

Advertisment
East malling, United Kingdom (99008): temperature & dewpoint: 17.09.2017 06:00:00 - 23.09.2017 06:00:00 (BST)East malling, United Kingdom (99008): temperature -20cm: 17.09.2017 06:00:00 - 23.09.2017 06:00:00 (BST)East malling, United Kingdom (99008): wind speed: 17.09.2017 06:00:00 - 23.09.2017 06:00:00 (BST)East malling, United Kingdom (99008): wind direction: 17.09.2017 06:00:00 - 23.09.2017 06:00:00 (BST)East malling, United Kingdom (99008): reduced air pressure: 17.09.2017 06:00:00 - 23.09.2017 06:00:00 (BST)East malling, United Kingdom (99008): sunshine duration: 17.09.2017 06:00:00 - 23.09.2017 06:00:00 (BST)East malling, United Kingdom (99008): precipitation: 17.09.2017 06:00:00 - 23.09.2017 06:00:00 (BST)
Date & Time tt [°C] td [°C] tt -20cm [°C] ff [km/h] ff [kn] dd ppp [hPa] sd [min] rr [mm]
23.09.2017 06:00:00 - - - - - - - - 0,0
23.09.2017 05:00:00 8,7 8,5 - 2 1 S 1022,5 0 0,0
23.09.2017 04:00:00 8,8 8,4 - 0 0 N 1022,5 0 0,0
23.09.2017 03:00:00 9,1 8,9 - 2 1 W 1022,9 0 0,0
23.09.2017 02:00:00 8,5 8,2 - 0 0 N 1023,4 0 0,0
23.09.2017 01:00:00 8,2 7,6 - 2 1 WSW 1023,4 - 0,0
23.09.2017 00:00:00 9,2 8,2 - 4 2 S 1023,2 0 0,0
22.09.2017 23:00:00 10,2 9,0 - 2 1 SSE 1023,2 0 0,0
22.09.2017 22:00:00 10,3 8,7 - 4 2 S 1023,2 0 0,0
22.09.2017 21:00:00 10,3 8,3 - 4 2 S 1022,9 0 0,0
22.09.2017 20:00:00 12,4 9,5 - 8 4 S 1022,6 0 0,0
22.09.2017 19:00:00 14,0 9,2 - 9 5 SSW 1022,2 18 0,0
22.09.2017 18:00:00 16,3 8,9 - 11 6 SW 1021,9 42 0,0
22.09.2017 17:00:00 17,5 8,4 - 8 4 WSW 1021,5 48 0,0
22.09.2017 16:00:00 17,8 7,2 - 11 6 WSW 1021,6 60 0,0
22.09.2017 15:00:00 17,7 6,3 - 13 7 WSW 1021,7 60 0,0
22.09.2017 14:00:00 17,4 5,8 - 8 4 W 1021,6 60 0,0
22.09.2017 13:00:00 17,1 6,7 - 9 5 SSW 1021,9 60 0,0
22.09.2017 12:00:00 16,1 8,6 - 11 6 SW 1021,9 54 0,0
22.09.2017 11:00:00 16,1 9,9 - 4 2 SW 1021,9 60 0,0
22.09.2017 10:00:00 13,3 9,2 13,2 2 1 NE 1021,9 60 0,0
22.09.2017 09:00:00 11,6 10,3 - 0 0 N 1021,6 60 0,0
22.09.2017 08:00:00 8,1 8,0 - 2 1 ESE 1021,4 18 0,0
22.09.2017 07:00:00 5,7 5,3 - 2 1 WSW 1020,9 0 0,2
22.09.2017 06:00:00 6,3 5,9 - 5 3 W 1020,4 0 0,0
22.09.2017 05:00:00 6,7 6,2 - 2 1 W 1020,2 0 0,0
22.09.2017 04:00:00 7,1 6,4 - 2 1 WNW 1020,1 0 0,0
22.09.2017 03:00:00 8,9 8,4 - 2 1 WSW 1019,9 0 0,0
22.09.2017 02:00:00 9,7 9,2 - 8 4 WSW 1019,9 0 0,0
22.09.2017 01:00:00 10,1 9,3 - 4 2 SE 1019,4 - 0,0
22.09.2017 00:00:00 12,3 10,7 - 5 3 W 1018,6 0 0,0
21.09.2017 23:00:00 13,0 11,6 - 5 3 WSW 1018,4 0 0,0
21.09.2017 22:00:00 13,4 12,4 - 2 1 S 1018,1 0 0,0
21.09.2017 21:00:00 14,3 13,3 - 9 5 SW 1017,7 0 0,0
21.09.2017 20:00:00 14,2 13,4 - 4 2 SSW 1017,2 6 0,0
21.09.2017 19:00:00 14,5 13,5 - 8 4 S 1016,4 0 0,2
21.09.2017 18:00:00 15,5 12,5 - 11 6 SSW 1016,1 0 0,0
21.09.2017 17:00:00 16,5 11,5 - 16 9 SSW 1015,6 0 0,0
21.09.2017 16:00:00 17,5 10,9 - 18 10 SSW 1015,3 36 0,0
21.09.2017 15:00:00 18,2 10,1 - 21 11 SSW 1015,1 30 0,0
21.09.2017 14:00:00 18,3 11,0 - 22 12 SSW 1015,2 36 0,0
21.09.2017 13:00:00 18,3 11,4 - 22 12 SSW 1015,3 24 0,0
21.09.2017 12:00:00 17,4 11,3 - 24 13 SSW 1015,4 12 0,0
21.09.2017 11:00:00 17,6 11,6 - 18 10 S 1015,5 24 0,0
21.09.2017 10:00:00 16,4 12,2 13,7 16 9 S 1015,7 42 0,0
21.09.2017 09:00:00 15,1 12,3 - 15 8 SSE 1015,6 36 0,0
21.09.2017 08:00:00 13,1 11,7 - 8 4 SSE 1015,7 6 0,0
21.09.2017 07:00:00 12,3 11,2 - 8 4 SSE 1015,8 6 0,0
21.09.2017 06:00:00 12,1 10,8 - 8 4 SSE 1015,7 0 0,0
21.09.2017 05:00:00 12,4 10,5 - 9 5 SSE 1016,0 0 0,0
21.09.2017 04:00:00 13,7 11,1 - 9 5 S 1016,4 0 0,0
21.09.2017 03:00:00 13,3 10,8 - 5 3 SE 1016,7 0 0,0
21.09.2017 02:00:00 12,7 10,6 - 8 4 SSE 1017,0 0 0,0
21.09.2017 01:00:00 12,9 11,1 - 9 5 SSE 1017,1 - 0,0
21.09.2017 00:00:00 10,6 10,2 - 5 3 SSE 1017,5 0 0,0
20.09.2017 23:00:00 11,2 10,4 - 5 3 SSE 1017,6 0 0,0
20.09.2017 22:00:00 11,2 10,4 - 5 3 S 1017,7 0 0,0
20.09.2017 21:00:00 10,8 9,6 - 4 2 SSW 1017,9 0 0,0
20.09.2017 20:00:00 12,9 10,4 - 8 4 S 1017,9 12 0,0
20.09.2017 19:00:00 14,6 10,8 - 9 5 SSW 1017,9 48 0,0
20.09.2017 18:00:00 16,0 11,2 - 15 8 SSW 1017,9 30 0,0
20.09.2017 17:00:00 16,1 12,7 - 13 7 SSW 1018,2 6 0,0
20.09.2017 16:00:00 15,1 12,6 - 16 9 S 1018,8 0 0,0
20.09.2017 15:00:00 15,3 12,6 - 18 10 SSW 1019,1 0 0,0
20.09.2017 14:00:00 15,3 12,1 - 11 6 S 1019,3 0 0,0
20.09.2017 13:00:00 15,7 12,0 - 11 6 SSW 1019,5 0 0,0
20.09.2017 12:00:00 16,5 12,4 - 13 7 SW 1019,6 18 0,0
20.09.2017 11:00:00 15,8 12,6 - 9 5 SSW 1020,0 18 0,0
20.09.2017 10:00:00 13,1 11,7 13,0 5 3 SSW 1020,3 6 0,0
20.09.2017 09:00:00 12,1 11,8 - 8 4 SSW 1020,3 42 0,0
20.09.2017 08:00:00 9,2 9,0 - 2 1 SSE 1020,4 0 0,0
20.09.2017 07:00:00 8,3 8,0 - 0 0 N 1020,4 6 0,0
20.09.2017 06:00:00 8,1 7,9 - 2 1 E 1020,6 0 0,0
20.09.2017 05:00:00 7,7 7,5 - 8 4 SSE 1020,8 0 0,0
20.09.2017 04:00:00 7,1 6,9 - 5 3 SSE 1021,0 0 0,0
20.09.2017 03:00:00 6,5 6,1 - 5 3 S 1021,3 0 0,0
20.09.2017 02:00:00 6,2 5,7 - 4 2 S 1021,7 0 0,0
20.09.2017 01:00:00 7,1 6,7 - 8 4 SSE 1021,8 - 0,0
20.09.2017 00:00:00 7,8 7,5 - 8 4 S 1022,0 0 0,0
19.09.2017 23:00:00 6,4 5,9 - 4 2 SSE 1022,2 0 0,0
19.09.2017 22:00:00 6,9 6,2 - 4 2 SSE 1022,3 0 0,0
19.09.2017 21:00:00 7,2 5,6 - 2 1 WSW 1022,3 0 0,0
19.09.2017 20:00:00 9,3 6,8 - 8 4 SW 1022,2 0 0,0
19.09.2017 19:00:00 12,1 7,1 - 5 3 WSW 1021,9 36 0,0
19.09.2017 18:00:00 15,4 7,8 - 5 3 WSW 1021,8 30 0,0
19.09.2017 17:00:00 14,9 7,9 - 5 3 W 1021,7 18 0,0
19.09.2017 16:00:00 14,3 8,8 - 4 2 SSE 1021,9 6 0,0
19.09.2017 15:00:00 13,7 8,4 - 11 6 NNW 1022,3 30 0,0
19.09.2017 14:00:00 13,7 9,0 - 8 4 NW 1022,2 18 0,0
19.09.2017 13:00:00 13,6 9,5 - 9 5 NNW 1022,2 12 0,0
19.09.2017 12:00:00 12,5 8,6 - 9 5 N 1022,0 12 0,0
19.09.2017 11:00:00 11,6 8,3 - 13 7 WNW 1022,0 18 0,0
19.09.2017 10:00:00 10,7 8,2 13,4 9 5 WNW 1021,7 12 0,0
19.09.2017 09:00:00 9,9 8,1 - 9 5 N 1021,2 18 0,0
19.09.2017 08:00:00 9,4 8,1 - 8 4 NNW 1020,5 6 0,0
19.09.2017 07:00:00 9,1 8,2 - 5 3 NNW 1020,4 6 0,0
19.09.2017 06:00:00 9,8 8,3 - 8 4 NNW 1019,8 0 0,0
19.09.2017 05:00:00 10,0 8,8 - 9 5 NW 1019,6 0 0,0
19.09.2017 04:00:00 9,6 8,3 - 9 5 NW 1019,5 0 0,2
19.09.2017 03:00:00 9,6 8,4 - 4 2 W 1019,3 0 0,0
19.09.2017 02:00:00 10,0 8,7 - 9 5 NW 1019,5 0 0,2
19.09.2017 01:00:00 10,3 8,8 - 9 5 NNW 1019,4 - 0,2
19.09.2017 00:00:00 11,4 9,6 - 11 6 NW 1019,5 0 0,0
18.09.2017 23:00:00 10,1 9,3 - 4 2 W 1019,1 0 0,0
18.09.2017 22:00:00 10,6 9,5 - 2 1 W 1018,9 0 0,4
18.09.2017 21:00:00 10,3 8,6 - 2 1 SSW 1018,9 0 0,0
18.09.2017 20:00:00 11,0 8,9 - 4 2 WNW 1018,4 0 0,0
18.09.2017 19:00:00 13,2 8,9 - 8 4 N 1017,9 0 0,0
18.09.2017 18:00:00 14,4 8,5 - 11 6 N 1017,8 42 0,0
18.09.2017 17:00:00 14,6 8,9 - 11 6 NW 1017,4 18 0,0
18.09.2017 16:00:00 13,9 9,4 - 9 5 NNW 1017,7 12 0,2
18.09.2017 15:00:00 15,0 10,6 - 9 5 NW 1017,2 12 0,2
18.09.2017 14:00:00 16,1 9,5 - 18 10 NW 1017,0 24 0,0
18.09.2017 13:00:00 15,0 9,7 - 18 10 NW 1017,0 12 0,0
18.09.2017 12:00:00 15,2 9,8 - 18 10 NNW 1017,0 30 0,0
18.09.2017 11:00:00 13,3 10,2 - 18 10 NNW 1017,0 0 0,0
18.09.2017 10:00:00 12,9 10,3 13,7 15 8 NNW 1016,7 0 0,0
18.09.2017 09:00:00 12,5 10,4 - 13 7 NNW 1016,5 0 0,0
18.09.2017 08:00:00 11,9 10,3 - 9 5 WNW 1016,1 0 0,0
18.09.2017 07:00:00 11,5 10,0 - 8 4 WNW 1016,0 0 0,0
18.09.2017 06:00:00 11,1 9,8 - 8 4 WNW 1015,7 0 0,0
18.09.2017 05:00:00 10,9 10,0 - 8 4 NNW 1015,6 0 0,0
18.09.2017 04:00:00 10,7 10,1 - 11 6 NW 1015,5 0 0,0
18.09.2017 03:00:00 9,4 8,7 - 4 2 W 1015,3 0 0,0
18.09.2017 02:00:00 9,8 9,1 - 8 4 NW 1015,4 0 0,0
18.09.2017 01:00:00 9,1 8,1 - 2 1 W 1015,6 - 0,0
18.09.2017 00:00:00 9,3 8,8 - 5 3 W 1015,6 0 0,0
17.09.2017 23:00:00 8,3 7,3 - 4 2 WSW 1015,6 0 0,0
17.09.2017 22:00:00 9,6 8,5 - 4 2 WSW 1015,4 0 0,0
17.09.2017 21:00:00 9,4 8,4 - 4 2 W 1015,2 0 0,0
17.09.2017 20:00:00 10,9 9,0 - 8 4 WNW 1014,6 12 0,0
17.09.2017 19:00:00 14,0 9,4 - 9 5 N 1013,8 42 0,0
17.09.2017 18:00:00 15,4 9,2 - 5 3 NW 1013,4 42 0,0
17.09.2017 17:00:00 14,1 9,8 - 4 2 E 1013,3 18 0,6
17.09.2017 16:00:00 16,1 9,2 - 11 6 NNW 1013,3 54 0,0
17.09.2017 15:00:00 16,2 8,9 - 9 5 NW 1013,2 24 0,0
17.09.2017 14:00:00 15,6 9,0 - 9 5 N 1013,3 54 0,0
17.09.2017 13:00:00 14,7 10,0 - 11 6 NNE 1013,8 18 0,0
17.09.2017 12:00:00 13,4 9,6 - 8 4 N 1013,6 24 0,0
17.09.2017 11:00:00 11,6 9,2 - 8 4 NNW 1013,6 0 0,0
17.09.2017 10:00:00 10,2 9,1 13,7 8 4 NW 1013,6 0 0,0
17.09.2017 09:00:00 9,9 9,0 - 8 4 NNW 1013,2 0 0,0
17.09.2017 08:00:00 9,1 8,6 - 5 3 NW 1013,0 0 0,0
17.09.2017 07:00:00 8,9 8,0 - 8 4 NNW 1012,5 0 0,0
17.09.2017 06:00:00 9,8 8,8 - 9 5 NNW 1011,8 0 0,0

tt = temperature
td = dewpoint
tt -20cm = temperature -20cm
ff = wind speed
dd = wind direction
ppp = reduced air pressure
sd = sunshine duration
rr = precipitation

Next stations